createdAt,value
2023-09-13T00:00:37.546Z,389.70
2023-09-13T00:01:37.670Z,286.40
2023-09-13T00:02:37.671Z,196.40
2023-09-13T00:03:37.503Z,170.50
2023-09-13T00:04:37.491Z,236.90
2023-09-13T00:05:37.425Z,196.60
2023-09-13T00:06:37.576Z,422.70
2023-09-13T00:07:37.412Z,362.60
2023-09-13T00:08:37.395Z,342.00
2023-09-13T00:09:37.757Z,216.80
2023-09-13T00:10:37.383Z,394.80
2023-09-13T00:11:37.355Z,222.50
2023-09-13T00:12:37.364Z,211.80
2023-09-13T00:13:37.340Z,281.10
2023-09-13T00:14:37.358Z,175.00
2023-09-13T00:15:37.324Z,268.80
2023-09-13T00:16:37.389Z,266.70
2023-09-13T00:17:37.356Z,280.70
2023-09-13T00:18:37.274Z,289.10
2023-09-13T00:19:37.271Z,226.00
2023-09-13T00:20:37.265Z,211.10
2023-09-13T00:21:37.247Z,232.50
2023-09-13T00:22:37.254Z,268.20
2023-09-13T00:23:37.224Z,177.10
2023-09-13T00:24:37.209Z,295.20
2023-09-13T00:25:37.232Z,294.40
2023-09-13T00:26:37.198Z,245.30
2023-09-13T00:27:37.191Z,216.60
2023-09-13T00:28:37.201Z,196.50
2023-09-13T00:29:37.166Z,275.50
2023-09-13T00:30:37.152Z,318.80
2023-09-13T00:31:37.268Z,303.70
2023-09-13T00:32:37.152Z,235.10
2023-09-13T00:33:37.118Z,232.40
2023-09-13T00:34:37.110Z,174.70
2023-09-13T00:35:37.116Z,271.80
2023-09-13T00:36:37.102Z,163.60
2023-09-13T00:37:37.099Z,189.40
2023-09-13T00:38:37.061Z,155.50
2023-09-13T00:39:37.050Z,228.50
2023-09-13T00:40:37.078Z,334.20
2023-09-13T00:41:37.033Z,191.00
2023-09-13T00:42:37.040Z,219.50
2023-09-13T00:43:37.008Z,151.70
2023-09-13T00:44:36.992Z,148.70
2023-09-13T00:45:37.006Z,154.00
2023-09-13T00:46:37.076Z,144.20
2023-09-13T00:47:37.378Z,162.50
2023-09-13T00:48:36.951Z,158.90
2023-09-13T00:49:36.948Z,146.30
2023-09-13T00:50:47.586Z,261.40
2023-09-13T00:51:36.920Z,169.90
2023-09-13T00:52:36.905Z,212.90
2023-09-13T00:53:36.935Z,195.20
2023-09-13T00:54:36.892Z,233.40
2023-09-13T00:55:36.874Z,202.20
2023-09-13T00:56:36.899Z,187.90
2023-09-13T00:57:36.850Z,244.10
2023-09-13T00:58:36.869Z,302.70
2023-09-13T00:59:36.837Z,276.60
2023-09-13T01:00:36.817Z,291.00
2023-09-13T01:01:36.933Z,249.40
2023-09-13T01:02:36.850Z,444.40
2023-09-13T01:03:36.836Z,325.30
2023-09-13T01:04:36.811Z,296.70
2023-09-13T01:05:36.805Z,386.90
2023-09-13T01:06:36.765Z,323.70
2023-09-13T01:07:36.769Z,309.10
2023-09-13T01:08:36.755Z,342.10
2023-09-13T01:09:36.769Z,284.60
2023-09-13T01:10:36.716Z,258.90
2023-09-13T01:11:36.724Z,253.30
2023-09-13T01:12:36.701Z,228.00
2023-09-13T01:13:36.689Z,307.80
2023-09-13T01:14:36.682Z,274.60
2023-09-13T01:15:36.977Z,269.80
2023-09-13T01:16:36.694Z,268.90
2023-09-13T01:17:36.667Z,255.10
2023-09-13T01:18:36.623Z,452.10
2023-09-13T01:19:36.609Z,343.50
2023-09-13T01:20:36.937Z,491.60
2023-09-13T01:21:36.588Z,284.10
2023-09-13T01:22:36.577Z,363.20
2023-09-13T01:23:36.568Z,350.50
2023-09-13T01:24:36.554Z,422.00
2023-09-13T01:25:36.546Z,249.80
2023-09-13T01:26:36.545Z,295.80
2023-09-13T01:27:36.524Z,430.80
2023-09-13T01:28:36.512Z,426.70
2023-09-13T01:29:36.504Z,261.20
2023-09-13T01:30:36.498Z,361.20
2023-09-13T01:31:36.502Z,221.40
2023-09-13T01:32:36.659Z,226.80
2023-09-13T01:33:36.476Z,276.20
2023-09-13T01:34:36.445Z,241.20
2023-09-13T01:35:36.433Z,249.00
2023-09-13T01:36:36.446Z,250.40
2023-09-13T01:37:36.642Z,337.30
2023-09-13T01:38:36.400Z,292.40
2023-09-13T01:39:36.392Z,285.90
2023-09-13T01:40:36.366Z,215.00
2023-09-13T01:41:36.378Z,416.40
2023-09-13T01:42:36.366Z,256.00
2023-09-13T01:43:36.350Z,223.60
2023-09-13T01:44:36.365Z,234.20
2023-09-13T01:45:36.396Z,268.90
2023-09-13T01:46:36.591Z,255.40
2023-09-13T01:47:36.346Z,227.90
2023-09-13T01:48:36.321Z,219.70
2023-09-13T01:49:36.285Z,223.60
2023-09-13T01:50:36.276Z,224.40
2023-09-13T01:51:36.275Z,296.20
2023-09-13T01:52:36.239Z,201.00
2023-09-13T01:53:36.247Z,234.60
2023-09-13T01:54:36.219Z,336.90
2023-09-13T01:55:36.228Z,263.30
2023-09-13T01:56:36.219Z,258.00
2023-09-13T01:57:36.291Z,305.10
2023-09-13T01:58:36.178Z,219.00
2023-09-13T01:59:36.179Z,231.90
2023-09-13T02:00:36.202Z,297.90
2023-09-13T02:01:36.262Z,268.90
2023-09-13T02:02:36.178Z,292.00
2023-09-13T02:03:36.180Z,226.50
2023-09-13T02:04:36.252Z,247.30
2023-09-13T02:05:36.143Z,273.00
2023-09-13T02:06:36.102Z,263.70
2023-09-13T02:07:36.080Z,253.00
2023-09-13T02:08:36.091Z,203.30
2023-09-13T02:09:36.060Z,230.50
2023-09-13T02:10:36.063Z,280.40
2023-09-13T02:11:36.041Z,201.30
2023-09-13T02:12:36.023Z,228.50
2023-09-13T02:13:36.021Z,266.00
2023-09-13T02:14:36.016Z,231.80
2023-09-13T02:15:36.176Z,225.50
2023-09-13T02:16:36.135Z,238.20
2023-09-13T02:17:36.025Z,234.30
2023-09-13T02:18:35.964Z,242.00
2023-09-13T02:19:35.959Z,235.80
2023-09-13T02:20:35.958Z,220.50
2023-09-13T02:21:35.948Z,237.10
2023-09-13T02:22:35.974Z,215.60
2023-09-13T02:23:35.916Z,215.10
2023-09-13T02:24:35.902Z,257.20
2023-09-13T02:25:35.895Z,225.60
2023-09-13T02:26:35.916Z,271.90
2023-09-13T02:27:35.911Z,283.90
2023-09-13T02:28:35.857Z,232.40
2023-09-13T02:29:35.854Z,229.90
2023-09-13T02:30:35.841Z,260.20
2023-09-13T02:31:35.898Z,224.80
2023-09-13T02:32:35.864Z,285.60
2023-09-13T02:33:35.808Z,251.40
2023-09-13T02:34:35.793Z,261.70
2023-09-13T02:35:35.792Z,218.60
2023-09-13T02:36:35.771Z,242.60
2023-09-13T02:37:35.803Z,227.30
2023-09-13T02:38:35.751Z,220.60
2023-09-13T02:39:35.773Z,205.40
2023-09-13T02:40:35.738Z,247.00
2023-09-13T02:41:35.721Z,273.90
2023-09-13T02:42:35.713Z,285.90
2023-09-13T02:43:35.714Z,241.10
2023-09-13T02:44:35.699Z,222.50
2023-09-13T02:45:35.680Z,197.90
2023-09-13T02:46:35.790Z,219.00
2023-09-13T02:47:35.746Z,249.30
2023-09-13T02:48:37.284Z,215.10
2023-09-13T02:49:35.628Z,291.00
2023-09-13T02:50:35.634Z,213.20
2023-09-13T02:51:35.619Z,162.10
2023-09-13T02:52:35.610Z,206.90
2023-09-13T02:53:35.595Z,146.60
2023-09-13T02:54:35.925Z,187.00
2023-09-13T02:55:37.683Z,189.00
2023-09-13T02:56:35.569Z,158.80
2023-09-13T02:57:35.547Z,213.00
2023-09-13T02:58:35.560Z,212.20
2023-09-13T02:59:35.687Z,148.90
2023-09-13T03:00:35.582Z,194.80
2023-09-13T03:01:35.588Z,241.90
2023-09-13T03:02:35.562Z,271.40
2023-09-13T03:03:35.802Z,309.50
2023-09-13T03:04:35.497Z,309.30
2023-09-13T03:05:35.499Z,179.90
2023-09-13T03:06:35.456Z,297.40
2023-09-13T03:07:35.448Z,237.90
2023-09-13T03:08:35.435Z,353.00
2023-09-13T03:09:35.420Z,250.50
2023-09-13T03:10:35.666Z,273.20
2023-09-13T03:11:35.430Z,312.50
2023-09-13T03:12:35.410Z,313.20
2023-09-13T03:13:35.387Z,326.90
2023-09-13T03:14:35.354Z,197.20
2023-09-13T03:15:35.371Z,298.80
2023-09-13T03:16:35.496Z,301.90
2023-09-13T03:17:35.359Z,234.70
2023-09-13T03:18:35.321Z,268.30
2023-09-13T03:19:35.314Z,358.10
2023-09-13T03:20:35.304Z,295.10
2023-09-13T03:21:35.304Z,285.00
2023-09-13T03:22:35.266Z,321.90
2023-09-13T03:23:35.257Z,275.90
2023-09-13T03:24:35.255Z,193.70
2023-09-13T03:25:35.234Z,292.40
2023-09-13T03:26:35.224Z,202.10
2023-09-13T03:27:35.255Z,190.20
2023-09-13T03:28:35.220Z,235.00
2023-09-13T03:29:35.184Z,241.80
2023-09-13T03:30:35.205Z,256.60
2023-09-13T03:31:35.199Z,284.20
2023-09-13T03:32:35.212Z,268.70
2023-09-13T03:33:35.139Z,270.20
2023-09-13T03:34:35.125Z,236.30
2023-09-13T03:35:35.141Z,318.20
2023-09-13T03:36:35.133Z,257.60
2023-09-13T03:37:35.111Z,279.90
2023-09-13T03:38:35.107Z,343.10
2023-09-13T03:39:35.074Z,366.30
2023-09-13T03:40:35.051Z,318.20
2023-09-13T03:41:35.039Z,360.80
2023-09-13T03:42:35.068Z,297.50
2023-09-13T03:43:35.039Z,298.10
2023-09-13T03:44:35.026Z,295.60
2023-09-13T03:45:35.006Z,314.10
2023-09-13T03:46:35.086Z,333.20
2023-09-13T03:47:35.021Z,342.80
2023-09-13T03:48:34.979Z,344.70
2023-09-13T03:49:35.007Z,373.10
2023-09-13T03:50:34.959Z,441.60
2023-09-13T03:51:34.944Z,303.50
2023-09-13T03:52:34.935Z,304.80
2023-09-13T03:53:34.904Z,299.40
2023-09-13T03:54:34.924Z,252.10
2023-09-13T03:55:34.949Z,335.00
2023-09-13T03:56:34.914Z,408.80
2023-09-13T03:57:34.876Z,443.70
2023-09-13T03:58:34.851Z,324.50
2023-09-13T03:59:34.850Z,263.00
2023-09-13T04:00:34.850Z,302.70
2023-09-13T04:01:34.873Z,365.10
2023-09-13T04:02:34.859Z,269.20
2023-09-13T04:03:34.825Z,304.30
2023-09-13T04:04:34.885Z,260.40
2023-09-13T04:05:34.837Z,264.50
2023-09-13T04:06:34.831Z,291.60
2023-09-13T04:07:34.803Z,331.00
2023-09-13T04:08:34.771Z,300.40
2023-09-13T04:09:34.733Z,265.40
2023-09-13T04:10:34.722Z,211.00
2023-09-13T04:11:34.721Z,203.40
2023-09-13T04:12:36.537Z,199.10
2023-09-13T04:13:34.694Z,225.90
2023-09-13T04:14:34.684Z,190.30
2023-09-13T04:15:34.672Z,212.60
2023-09-13T04:16:34.791Z,244.50
2023-09-13T04:17:34.696Z,319.90
2023-09-13T04:18:34.639Z,260.70
2023-09-13T04:19:34.640Z,334.50
2023-09-13T04:20:36.650Z,362.00
2023-09-13T04:21:34.599Z,285.80
2023-09-13T04:22:34.619Z,341.20
2023-09-13T04:23:34.579Z,261.90
2023-09-13T04:24:34.573Z,252.90
2023-09-13T04:25:34.559Z,306.20
2023-09-13T04:26:34.560Z,176.50
2023-09-13T04:27:34.554Z,269.40
2023-09-13T04:28:34.524Z,265.00
2023-09-13T04:29:34.525Z,231.30
2023-09-13T04:30:34.510Z,318.30
2023-09-13T04:31:34.609Z,310.70
2023-09-13T04:32:34.594Z,272.60
2023-09-13T04:33:34.582Z,225.20
2023-09-13T04:34:34.554Z,262.40
2023-09-13T04:35:34.603Z,214.50
2023-09-13T04:36:34.545Z,294.80
2023-09-13T04:37:36.179Z,309.20
2023-09-13T04:38:34.637Z,338.00
2023-09-13T04:39:34.483Z,234.10
2023-09-13T04:40:34.484Z,295.30
2023-09-13T04:41:34.437Z,253.70
2023-09-13T04:42:34.531Z,329.00
2023-09-13T04:43:34.581Z,308.70
2023-09-13T04:44:34.472Z,293.30
2023-09-13T04:45:34.392Z,288.90
2023-09-13T04:46:34.532Z,303.00
2023-09-13T04:47:34.689Z,271.50
2023-09-13T04:48:34.430Z,352.10
2023-09-13T04:49:34.475Z,330.20
2023-09-13T04:50:34.401Z,379.90
2023-09-13T04:51:34.399Z,272.50
2023-09-13T04:52:34.397Z,339.50
2023-09-13T04:53:34.354Z,401.20
2023-09-13T04:54:34.278Z,374.80
2023-09-13T04:55:34.346Z,326.50
2023-09-13T04:56:34.297Z,276.30
2023-09-13T04:57:34.258Z,297.60
2023-09-13T04:58:36.600Z,308.60
2023-09-13T04:59:34.209Z,267.20
2023-09-13T05:00:34.243Z,307.30
2023-09-13T05:01:34.679Z,332.20
2023-09-13T05:02:34.404Z,285.00
2023-09-13T05:03:34.300Z,289.70
2023-09-13T05:04:34.228Z,360.00
2023-09-13T05:05:34.285Z,301.40
2023-09-13T05:06:34.144Z,269.00
2023-09-13T05:07:34.156Z,211.20
2023-09-13T05:08:34.199Z,282.40
2023-09-13T05:09:34.145Z,268.80
2023-09-13T05:10:34.137Z,289.70
2023-09-13T05:11:34.181Z,288.60
2023-09-13T05:12:34.056Z,270.50
2023-09-13T05:13:34.086Z,226.20
2023-09-13T05:14:34.482Z,224.70
2023-09-13T05:15:34.166Z,222.80
2023-09-13T05:16:34.447Z,231.60
2023-09-13T05:17:34.081Z,201.40
2023-09-13T05:18:34.105Z,255.00
2023-09-13T05:19:34.069Z,327.00
2023-09-13T05:20:34.030Z,295.10
2023-09-13T05:21:33.984Z,335.20
2023-09-13T05:22:34.093Z,303.30
2023-09-13T05:23:33.971Z,344.00
2023-09-13T05:24:33.962Z,348.90
2023-09-13T05:25:33.997Z,414.30
2023-09-13T05:26:34.020Z,347.20
2023-09-13T05:27:34.317Z,453.80
2023-09-13T05:28:34.071Z,391.70
2023-09-13T05:29:34.023Z,446.30
2023-09-13T05:30:34.008Z,470.40
2023-09-13T05:31:34.049Z,368.60
2023-09-13T05:32:34.316Z,397.90
2023-09-13T05:33:34.149Z,376.60
2023-09-13T05:34:34.083Z,496.80
2023-09-13T05:35:34.143Z,526.50
2023-09-13T05:36:34.073Z,433.60
2023-09-13T05:37:33.819Z,483.30
2023-09-13T05:38:33.844Z,471.90
2023-09-13T05:39:33.876Z,455.00
2023-09-13T05:40:34.114Z,387.10
2023-09-13T05:41:33.936Z,467.60
2023-09-13T05:42:33.834Z,408.40
2023-09-13T05:43:34.027Z,426.80
2023-09-13T05:44:34.080Z,432.50
2023-09-13T05:45:33.844Z,443.90
2023-09-13T05:46:33.846Z,365.70
2023-09-13T05:47:33.805Z,529.50
2023-09-13T05:48:33.777Z,428.40
2023-09-13T05:49:33.792Z,401.50
2023-09-13T05:50:33.754Z,370.40
2023-09-13T05:51:33.894Z,398.20
2023-09-13T05:52:33.773Z,442.00
2023-09-13T05:53:33.680Z,392.80
2023-09-13T05:54:33.630Z,466.40
2023-09-13T05:55:33.780Z,389.20
2023-09-13T05:56:33.703Z,362.30
2023-09-13T05:57:33.631Z,294.00
2023-09-13T05:58:33.768Z,338.20
2023-09-13T05:59:33.644Z,435.30
2023-09-13T06:00:33.614Z,333.40
2023-09-13T06:01:33.648Z,387.60
2023-09-13T06:02:33.721Z,332.70
2023-09-13T06:03:33.703Z,290.80
2023-09-13T06:04:33.810Z,380.20
2023-09-13T06:05:33.675Z,312.80
2023-09-13T06:06:33.537Z,329.90
2023-09-13T06:07:33.523Z,300.70
2023-09-13T06:08:33.543Z,331.10
2023-09-13T06:09:33.679Z,282.10
2023-09-13T06:10:33.584Z,304.30
2023-09-13T06:11:33.641Z,310.70
2023-09-13T06:12:33.436Z,308.30
2023-09-13T06:13:33.606Z,274.60
2023-09-13T06:14:33.513Z,331.60
2023-09-13T06:15:33.423Z,313.10
2023-09-13T06:16:33.644Z,241.00
2023-09-13T06:17:33.584Z,268.80
2023-09-13T06:18:33.494Z,346.30
2023-09-13T06:19:33.466Z,356.10
2023-09-13T06:20:33.756Z,359.00
2023-09-13T06:21:33.539Z,353.70
2023-09-13T06:22:34.280Z,276.30
2023-09-13T06:23:33.544Z,299.90
2023-09-13T06:24:34.569Z,333.20
2023-09-13T06:25:33.518Z,292.30
2023-09-13T06:26:33.503Z,335.60
2023-09-13T06:27:33.365Z,284.00
2023-09-13T06:28:33.444Z,326.00
2023-09-13T06:29:33.351Z,291.60
2023-09-13T06:30:33.498Z,285.70
2023-09-13T06:31:34.590Z,295.40
2023-09-13T06:32:41.131Z,323.50
2023-09-13T06:33:53.713Z,276.00
2023-09-13T06:34:33.643Z,300.30
2023-09-13T06:35:34.019Z,256.30
2023-09-13T06:36:34.054Z,305.80
2023-09-13T06:37:33.964Z,250.10
2023-09-13T06:38:33.346Z,273.60
2023-09-13T06:39:33.407Z,236.00
2023-09-13T06:40:35.874Z,262.30
2023-09-13T06:41:33.470Z,235.70
2023-09-13T06:42:33.628Z,288.80
2023-09-13T06:43:34.910Z,306.60
2023-09-13T06:44:45.970Z,272.00
2023-09-13T06:45:34.788Z,222.90
2023-09-13T06:46:33.697Z,274.20
2023-09-13T06:47:35.164Z,252.60
2023-09-13T06:48:33.762Z,272.00
2023-09-13T06:49:34.692Z,272.40
2023-09-13T06:51:01.640Z,283.00
2023-09-13T06:51:50.515Z,274.90
2023-09-13T06:52:34.225Z,298.20
2023-09-13T06:53:45.094Z,317.50
2023-09-13T06:54:35.700Z,304.90
2023-09-13T06:55:35.441Z,347.20
2023-09-13T06:56:34.266Z,317.10
2023-09-13T06:57:33.661Z,297.00
2023-09-13T06:58:34.221Z,331.30
2023-09-13T06:59:42.675Z,319.60
2023-09-13T07:00:40.241Z,356.50
2023-09-13T07:02:37.000Z,328.40
2023-09-13T07:03:35.849Z,393.70
2023-09-13T07:04:38.784Z,358.80
2023-09-13T07:06:33.376Z,353.50
2023-09-13T07:07:33.067Z,345.30
2023-09-13T07:08:33.129Z,326.20
2023-09-13T07:09:33.021Z,363.80
2023-09-13T07:10:33.036Z,359.90
2023-09-13T07:11:33.228Z,433.70
2023-09-13T07:12:32.956Z,361.20
2023-09-13T07:13:32.920Z,366.70
2023-09-13T07:14:33.028Z,394.00
2023-09-13T07:15:32.807Z,369.50
2023-09-13T07:16:33.058Z,379.60
2023-09-13T07:17:33.324Z,355.50
2023-09-13T07:18:32.964Z,375.50
2023-09-13T07:19:32.921Z,396.40
2023-09-13T07:20:32.962Z,378.50
2023-09-13T07:21:32.897Z,367.40
2023-09-13T07:22:32.985Z,412.30
2023-09-13T07:23:32.901Z,329.80
2023-09-13T07:24:32.886Z,359.00
2023-09-13T07:25:32.851Z,371.40
2023-09-13T07:26:32.792Z,371.80
2023-09-13T07:27:32.790Z,473.80
2023-09-13T07:28:33.498Z,483.40
2023-09-13T07:29:32.879Z,417.70
2023-09-13T07:30:32.612Z,373.50
2023-09-13T07:31:32.797Z,403.10
2023-09-13T07:32:32.838Z,368.90
2023-09-13T07:33:32.842Z,438.70
2023-09-13T07:34:33.097Z,407.10
2023-09-13T07:35:39.154Z,405.90
2023-09-13T07:36:32.809Z,357.50
2023-09-13T07:37:32.807Z,418.00
2023-09-13T07:38:32.579Z,448.00
2023-09-13T07:39:32.936Z,383.60
2023-09-13T07:40:33.457Z,441.60
2023-09-13T07:41:32.833Z,398.40
2023-09-13T07:42:32.557Z,478.30
2023-09-13T07:43:32.535Z,466.00
2023-09-13T07:44:32.590Z,482.20
2023-09-13T07:45:32.612Z,487.30
2023-09-13T07:46:32.707Z,500.20
2023-09-13T07:47:32.417Z,492.20
2023-09-13T07:48:32.759Z,395.70
2023-09-13T07:49:32.613Z,402.50
2023-09-13T07:50:32.535Z,478.60
2023-09-13T07:51:32.402Z,490.80
2023-09-13T07:52:48.652Z,507.40
2023-09-13T07:53:32.786Z,392.90
2023-09-13T07:54:32.776Z,503.40
2023-09-13T07:55:32.616Z,446.00
2023-09-13T07:56:32.539Z,451.60
2023-09-13T07:57:32.404Z,456.20
2023-09-13T07:58:32.402Z,416.10
2023-09-13T07:59:32.383Z,464.40
2023-09-13T08:00:32.513Z,490.80
2023-09-13T08:01:32.732Z,470.50
2023-09-13T08:02:32.291Z,511.60
2023-09-13T08:03:32.237Z,513.80
2023-09-13T08:04:32.479Z,539.30
2023-09-13T08:05:32.208Z,514.40
2023-09-13T08:06:32.179Z,508.20
2023-09-13T08:07:32.207Z,508.60
2023-09-13T08:08:32.213Z,499.20
2023-09-13T08:09:32.199Z,548.70
2023-09-13T08:10:32.162Z,543.10
2023-09-13T08:11:32.111Z,463.80
2023-09-13T08:12:32.117Z,506.70
2023-09-13T08:13:32.166Z,580.80
2023-09-13T08:14:32.131Z,563.70
2023-09-13T08:15:43.233Z,547.10
2023-09-13T08:16:32.314Z,443.50
2023-09-13T08:17:32.392Z,541.90
2023-09-13T08:18:32.040Z,528.40
2023-09-13T08:19:32.012Z,541.40
2023-09-13T08:20:32.014Z,486.30
2023-09-13T08:21:31.986Z,444.90
2023-09-13T08:22:39.758Z,507.10
2023-09-13T08:23:32.415Z,518.80
2023-09-13T08:24:31.972Z,574.10
2023-09-13T08:25:31.969Z,566.80
2023-09-13T08:26:31.973Z,548.20
2023-09-13T08:27:31.942Z,552.70
2023-09-13T08:28:32.040Z,590.80
2023-09-13T08:29:31.967Z,595.10
2023-09-13T08:30:32.286Z,547.20
2023-09-13T08:31:31.895Z,536.80
2023-09-13T08:32:31.857Z,527.90
2023-09-13T08:33:32.165Z,559.80
2023-09-13T08:34:31.928Z,502.60
2023-09-13T08:35:32.036Z,552.20
2023-09-13T08:36:31.812Z,532.90
2023-09-13T08:37:31.870Z,528.30
2023-09-13T08:38:31.806Z,548.50
2023-09-13T08:39:31.799Z,569.10
2023-09-13T08:40:31.879Z,495.10
2023-09-13T08:41:31.756Z,493.90
2023-09-13T08:42:31.775Z,514.40
2023-09-13T08:43:31.747Z,491.30
2023-09-13T08:44:31.713Z,563.40
2023-09-13T08:45:31.743Z,500.90
2023-09-13T08:46:31.785Z,525.40
2023-09-13T08:47:39.445Z,476.10
2023-09-13T08:48:31.727Z,458.20
2023-09-13T08:49:31.716Z,429.50
2023-09-13T08:50:31.880Z,403.20
2023-09-13T08:51:31.636Z,410.30
2023-09-13T08:52:31.698Z,406.40
2023-09-13T08:53:31.736Z,372.90
2023-09-13T08:54:40.566Z,350.80
2023-09-13T08:55:31.685Z,326.60
2023-09-13T08:56:31.588Z,334.10
2023-09-13T08:57:31.577Z,349.40
2023-09-13T08:58:31.609Z,353.10
2023-09-13T08:59:31.540Z,384.40
2023-09-13T09:00:31.570Z,267.20
2023-09-13T09:01:31.592Z,261.20
2023-09-13T09:02:31.627Z,237.30
2023-09-13T09:03:31.578Z,228.00
2023-09-13T09:04:31.519Z,277.70
2023-09-13T09:05:31.468Z,239.00
2023-09-13T09:06:31.465Z,238.00
2023-09-13T09:07:31.503Z,266.20
2023-09-13T09:08:31.459Z,192.20
2023-09-13T09:09:31.431Z,206.60
2023-09-13T09:10:31.458Z,213.40
2023-09-13T09:11:31.410Z,193.20
2023-09-13T09:12:31.417Z,245.10
2023-09-13T09:13:31.436Z,237.20
2023-09-13T09:14:31.368Z,228.40
2023-09-13T09:15:31.361Z,187.90
2023-09-13T09:16:31.387Z,186.30
2023-09-13T09:17:31.375Z,119.70
2023-09-13T09:18:31.339Z,128.10
2023-09-13T09:19:31.352Z,157.20
2023-09-13T09:20:31.354Z,120.30
2023-09-13T09:21:31.310Z,92.70
2023-09-13T09:22:31.341Z,84.10
2023-09-13T09:23:31.360Z,88.10
2023-09-13T09:24:31.266Z,143.60
2023-09-13T09:25:31.383Z,106.20
2023-09-13T09:26:31.276Z,109.00
2023-09-13T09:27:31.244Z,93.60
2023-09-13T09:28:31.338Z,102.40
2023-09-13T09:29:31.250Z,104.90
2023-09-13T09:30:31.225Z,111.30
2023-09-13T09:31:31.253Z,93.90
2023-09-13T09:32:31.226Z,94.90
2023-09-13T09:33:31.242Z,75.00
2023-09-13T09:34:31.211Z,85.00
2023-09-13T09:35:31.166Z,74.70
2023-09-13T09:36:31.123Z,68.70
2023-09-13T09:37:31.258Z,75.70
2023-09-13T09:38:31.148Z,104.40
2023-09-13T09:39:31.117Z,90.30
2023-09-13T09:40:31.240Z,85.30
2023-09-13T09:41:31.072Z,81.20
2023-09-13T09:42:31.058Z,76.20
2023-09-13T09:43:31.082Z,76.60
2023-09-13T09:44:31.044Z,77.80
2023-09-13T09:45:31.308Z,65.10
2023-09-13T09:46:31.076Z,64.30
2023-09-13T09:47:31.018Z,57.00
2023-09-13T09:48:30.999Z,60.20
2023-09-13T09:49:31.042Z,58.80
2023-09-13T09:50:31.005Z,51.70
2023-09-13T09:51:31.015Z,50.40
2023-09-13T09:52:30.965Z,51.40
2023-09-13T09:53:30.959Z,50.90
2023-09-13T09:54:30.928Z,45.50
2023-09-13T09:55:30.932Z,49.50
2023-09-13T09:56:30.958Z,49.80
2023-09-13T09:57:30.926Z,39.30
2023-09-13T09:58:30.890Z,41.50
2023-09-13T09:59:30.970Z,47.50
2023-09-13T10:00:30.863Z,45.10
2023-09-13T10:01:34.100Z,44.60
2023-09-13T10:02:30.991Z,47.70
2023-09-13T10:03:31.000Z,43.30
2023-09-13T10:04:30.821Z,45.00
2023-09-13T10:05:30.816Z,40.00
2023-09-13T10:06:31.066Z,42.00
2023-09-13T10:07:30.855Z,41.40
2023-09-13T10:08:30.786Z,42.10
2023-09-13T10:09:30.789Z,38.70
2023-09-13T10:10:30.842Z,39.10
2023-09-13T10:11:30.747Z,38.80
2023-09-13T10:12:30.763Z,40.50
2023-09-13T10:13:30.752Z,40.70
2023-09-13T10:14:30.741Z,43.10
2023-09-13T10:15:30.761Z,38.20
2023-09-13T10:16:30.698Z,39.40
2023-09-13T10:17:30.700Z,38.30
2023-09-13T10:18:30.694Z,34.80
2023-09-13T10:19:30.663Z,36.50
2023-09-13T10:20:30.648Z,44.10
2023-09-13T10:21:30.662Z,41.20
2023-09-13T10:22:30.630Z,40.60
2023-09-13T10:23:30.625Z,40.40
2023-09-13T10:24:30.658Z,39.70
2023-09-13T10:25:30.611Z,39.30
2023-09-13T10:26:30.602Z,35.60
2023-09-13T10:27:30.579Z,37.60
2023-09-13T10:28:30.557Z,38.80
2023-09-13T10:29:30.580Z,32.40
2023-09-13T10:30:30.538Z,31.20
2023-09-13T10:31:30.557Z,37.30
2023-09-13T10:32:30.592Z,34.60
2023-09-13T10:33:30.514Z,31.50
2023-09-13T10:34:30.496Z,33.80
2023-09-13T10:35:30.522Z,36.20
2023-09-13T10:36:30.505Z,32.60
2023-09-13T10:37:30.468Z,33.10
2023-09-13T10:38:30.450Z,30.80
2023-09-13T10:39:30.496Z,30.60
2023-09-13T10:40:30.461Z,29.90
2023-09-13T10:41:30.426Z,31.20
2023-09-13T10:42:30.421Z,30.60
2023-09-13T10:43:30.430Z,32.00
2023-09-13T10:44:30.391Z,29.20
2023-09-13T10:45:30.393Z,29.80
2023-09-13T10:46:30.395Z,28.50
2023-09-13T10:47:30.473Z,29.60
2023-09-13T10:48:30.390Z,30.40
2023-09-13T10:49:30.336Z,15.50
2023-09-13T10:50:30.337Z,18.10
2023-09-13T10:51:30.356Z,15.20
2023-09-13T10:52:30.317Z,14.50
2023-09-13T10:53:30.289Z,11.50
2023-09-13T10:54:30.280Z,11.90
2023-09-13T10:55:30.276Z,11.40
2023-09-13T10:56:30.257Z,11.70
2023-09-13T10:57:31.551Z,12.50
2023-09-13T10:58:30.233Z,12.40
2023-09-13T10:59:30.232Z,14.80
2023-09-13T11:00:30.232Z,16.10
2023-09-13T11:01:30.203Z,16.00
2023-09-13T11:02:30.844Z,17.00
2023-09-13T11:03:30.282Z,17.80
2023-09-13T11:04:30.178Z,29.40
2023-09-13T11:05:30.160Z,29.60
2023-09-13T11:06:30.157Z,34.70
2023-09-13T11:07:30.142Z,38.90
2023-09-13T11:08:30.150Z,34.80
2023-09-13T11:09:30.138Z,33.80
2023-09-13T11:10:30.105Z,29.90
2023-09-13T11:11:31.923Z,36.90
2023-09-13T11:12:30.080Z,44.00
2023-09-13T11:13:30.092Z,37.20
2023-09-13T11:14:30.079Z,46.70
2023-09-13T11:15:30.049Z,51.10
2023-09-13T11:16:30.110Z,56.80
2023-09-13T11:17:30.058Z,48.60
2023-09-13T11:18:30.009Z,51.40
2023-09-13T11:19:30.025Z,47.60
2023-09-13T11:20:30.045Z,49.10
2023-09-13T11:21:30.067Z,51.60
2023-09-13T11:22:29.981Z,60.30
2023-09-13T11:23:34.754Z,73.50
2023-09-13T11:24:32.543Z,45.40
2023-09-13T11:25:31.556Z,65.30
2023-09-13T11:26:37.526Z,66.10
2023-09-13T11:27:29.923Z,63.90
2023-09-13T11:28:29.916Z,59.60
2023-09-13T11:29:29.955Z,49.20
2023-09-13T11:30:29.904Z,52.20
2023-09-13T11:31:29.929Z,65.70
2023-09-13T11:32:29.936Z,61.50
2023-09-13T11:33:29.854Z,68.70
2023-09-13T11:34:29.843Z,46.80
2023-09-13T11:35:29.843Z,64.20
2023-09-13T11:36:29.815Z,49.70
2023-09-13T11:37:29.819Z,54.60
2023-09-13T11:38:29.803Z,66.80
2023-09-13T11:39:29.785Z,61.80
2023-09-13T11:40:29.771Z,58.30
2023-09-13T11:41:29.806Z,56.30
2023-09-13T11:42:35.108Z,59.60
2023-09-13T11:43:34.152Z,67.10
2023-09-13T11:44:34.299Z,67.90
2023-09-13T11:45:33.873Z,65.60
2023-09-13T11:46:29.853Z,59.10
2023-09-13T11:47:29.810Z,42.70
2023-09-13T11:48:30.198Z,34.60
2023-09-13T11:49:36.907Z,44.50
2023-09-13T11:50:44.698Z,42.40
2023-09-13T11:52:31.733Z,37.90
2023-09-13T11:53:29.914Z,39.70
2023-09-13T11:54:29.731Z,44.30
2023-09-13T11:55:36.713Z,41.90
2023-09-13T11:56:44.288Z,38.60
2023-09-13T11:57:39.466Z,38.30
2023-09-13T11:58:36.511Z,29.80
2023-09-13T11:59:31.051Z,47.70
2023-09-13T12:00:31.784Z,38.80
2023-09-13T12:01:30.212Z,33.40
2023-09-13T12:02:31.773Z,25.10
2023-09-13T12:03:54.923Z,32.70
2023-09-13T12:05:41.270Z,51.10
2023-09-13T12:06:33.144Z,35.20
2023-09-13T12:07:31.159Z,29.40
2023-09-13T12:08:30.392Z,28.50
2023-09-13T12:09:31.065Z,24.40
2023-09-13T12:10:29.909Z,38.00
2023-09-13T12:11:32.303Z,34.80
2023-09-13T12:12:41.382Z,31.30
2023-09-13T12:13:37.236Z,25.00
2023-09-13T12:14:50.488Z,22.70
2023-09-13T12:16:29.460Z,32.30
2023-09-13T12:17:29.507Z,34.80
2023-09-13T12:18:29.418Z,16.80
2023-09-13T12:19:29.358Z,21.30
2023-09-13T12:20:29.337Z,21.50
2023-09-13T12:21:29.371Z,16.90
2023-09-13T12:22:29.326Z,18.90
2023-09-13T12:23:29.310Z,18.20
2023-09-13T12:24:29.432Z,17.00
2023-09-13T12:25:29.295Z,17.10
2023-09-13T12:26:29.282Z,22.80
2023-09-13T12:27:29.278Z,25.00
2023-09-13T12:28:29.279Z,23.00
2023-09-13T12:29:29.241Z,22.00
2023-09-13T12:30:29.250Z,16.00
2023-09-13T12:31:29.240Z,15.30
2023-09-13T12:32:29.253Z,15.50
2023-09-13T12:33:29.202Z,15.90
2023-09-13T12:34:29.181Z,13.10
2023-09-13T12:35:29.197Z,12.80
2023-09-13T12:36:29.187Z,13.30
2023-09-13T12:37:29.150Z,12.40
2023-09-13T12:38:29.160Z,12.50
2023-09-13T12:39:29.167Z,17.50